Time;durP1;ratioP1;P1;durP2;ratioP2;P2;SDS_P1;SDS_P2;PMS_P1;PMS_P2;Temp;Humidity;BMP_temperature;BMP_pressure;BME280_temperature;BME280_humidity;BME280_pressure;Samples;Min_cycle;Max_cycle;Signal;HPM_P1;HPM_P2
2022/05/18 00:01:07;;;;;;;3.45;3.15;;;20.20;52.50;;;;;;5074086;28;20103;-74
2022/05/18 00:03:35;;;;;;;7.03;3.45;;;20.20;52.90;;;;;;5056079;28;20362;-73
2022/05/18 00:06:03;;;;;;;4.00;3.13;;;20.10;53.10;;;;;;5074065;28;20489;-74
2022/05/18 00:08:35;;;;;;;4.75;3.53;;;20.10;53.10;;;;;;5055965;28;20059;-74
2022/05/18 00:11:10;;;;;;;3.92;3.40;;;20.10;53.10;;;;;;5073920;28;20016;-74
2022/05/18 00:13:36;;;;;;;4.63;3.28;;;20.10;53.30;;;;;;5055980;28;20024;-74
2022/05/18 00:16:02;;;;;;;4.10;3.15;;;20.00;53.30;;;;;;5073822;28;20020;-75
2022/05/18 00:18:28;;;;;;;3.30;2.78;;;20.00;53.10;;;;;;5073718;28;20031;-74
2022/05/18 00:20:53;;;;;;;3.05;2.70;;;20.00;53.00;;;;;;5073836;28;20035;-74
2022/05/18 00:23:19;;;;;;;3.75;2.83;;;20.00;52.90;;;;;;5073498;28;20498;-74
2022/05/18 00:25:45;;;;;;;5.18;2.60;;;20.00;53.00;;;;;;5071940;28;20016;-74
2022/05/18 00:28:11;;;;;;;5.55;3.13;;;19.90;53.00;;;;;;5036196;28;20024;-74
2022/05/18 00:30:40;;;;;;;3.60;2.80;;;19.90;53.50;;;;;;5035713;28;20539;-74
2022/05/18 00:33:08;;;;;;;4.10;3.15;;;19.80;53.30;;;;;;5055020;28;20451;-74
2022/05/18 00:35:36;;;;;;;3.60;3.10;;;19.80;53.30;;;;;;5055558;28;20089;-74
2022/05/18 00:38:02;;;;;;;5.95;2.72;;;19.80;53.50;;;;;;5073507;28;20017;-74
2022/05/18 00:40:29;;;;;;;3.90;3.00;;;19.70;53.40;;;;;;5055536;28;20052;-74
2022/05/18 00:42:55;;;;;;;6.75;2.75;;;19.60;53.50;;;;;;5073318;28;20027;-74
2022/05/18 00:45:21;;;;;;;7.15;3.72;;;19.60;53.60;;;;;;5073266;28;20028;-74
2022/05/18 00:47:47;;;;;;;5.90;2.97;;;19.50;53.60;;;;;;5073243;28;20538;-74
2022/05/18 00:50:34;;;;;;;3.97;2.78;;;19.50;53.80;;;;;;5073220;28;20016;-74
2022/05/18 00:53:06;;;;;;;6.03;3.15;;;19.40;54.00;;;;;;5072871;28;20406;-74
2022/05/18 00:55:35;;;;;;;3.00;2.70;;;19.30;54.20;;;;;;5073151;28;20016;-73
2022/05/18 00:58:14;;;;;;;8.82;3.60;;;19.30;54.30;;;;;;5072741;28;20028;-74
2022/05/18 01:00:40;;;;;;;6.38;3.78;;;19.20;54.50;;;;;;5073005;28;20131;-74
2022/05/18 01:03:19;;;;;;;2.97;2.67;;;19.20;54.70;;;;;;5072487;28;20474;-74
2022/05/18 01:05:49;;;;;;;4.00;2.97;;;19.10;55.00;;;;;;5072805;28;20386;-74
2022/05/18 01:08:20;;;;;;;3.10;2.80;;;19.00;55.00;;;;;;5054821;28;20388;-74
2022/05/18 01:10:46;;;;;;;3.92;3.20;;;19.00;55.00;;;;;;5072741;28;20355;-74
2022/05/18 01:13:12;;;;;;;5.45;3.28;;;18.90;55.20;;;;;;5072675;28;20081;-74
2022/05/18 01:15:38;;;;;;;4.88;3.33;;;18.90;55.30;;;;;;5054589;28;20019;-74
2022/05/18 01:18:04;;;;;;;4.45;2.80;;;18.90;55.40;;;;;;5072451;28;20024;-74
2022/05/18 01:20:34;;;;;;;2.85;2.60;;;18.80;55.40;;;;;;5072476;28;20493;-74
2022/05/18 01:23:19;;;;;;;5.50;3.47;;;18.80;55.70;;;;;;5072548;28;20046;-74
2022/05/18 01:25:59;;;;;;;6.97;2.83;;;18.80;55.70;;;;;;5037430;28;20032;-74
2022/05/18 01:28:31;;;;;;;3.38;2.85;;;18.70;55.80;;;;;;5052465;28;20096;-74
2022/05/18 01:30:57;;;;;;;4.88;3.40;;;18.70;56.00;;;;;;5069369;28;20151;-73
2022/05/18 01:33:24;;;;;;;5.15;3.60;;;18.70;56.70;;;;;;5072262;28;20473;-74
2022/05/18 01:35:50;;;;;;;7.60;3.33;;;18.70;57.20;;;;;;5072321;28;20081;-74
2022/05/18 01:38:17;;;;;;;5.07;3.70;;;18.60;57.40;;;;;;5063015;28;20489;-74
2022/05/18 01:41:04;;;;;;;6.68;4.15;;;18.60;57.60;;;;;;5069056;28;20021;-74
2022/05/18 01:43:52;;;;;;;5.57;3.47;;;18.60;57.70;;;;;;5054249;28;20021;-74
2022/05/18 01:46:20;;;;;;;5.93;2.90;;;18.60;57.50;;;;;;5072355;28;20415;-74
2022/05/18 01:48:49;;;;;;;7.45;3.50;;;18.60;57.20;;;;;;5072270;28;20432;-74
2022/05/18 01:51:34;;;;;;;5.13;2.90;;;18.60;57.10;;;;;;5072275;28;20020;-74
2022/05/18 01:54:00;;;;;;;;;;;18.50;57.00;;;;;;5073027;28;20024;-74
2022/05/18 01:56:26;;;;;;;5.30;2.85;;;18.50;56.00;;;;;;5054257;28;20273;-74
2022/05/18 01:58:51;;;;;;;4.55;2.83;;;18.50;56.20;;;;;;5072113;28;20059;-74
2022/05/18 02:01:18;;;;;;;4.43;3.20;;;18.40;56.50;;;;;;5072269;28;20024;-74
2022/05/18 02:03:43;;;;;;;7.13;2.88;;;18.40;56.90;;;;;;5057777;28;20340;-74
2022/05/18 02:06:09;;;;;;;3.70;2.85;;;18.30;57.00;;;;;;5056187;28;20036;-74
2022/05/18 02:08:35;;;;;;;3.45;2.35;;;18.30;56.90;;;;;;5056189;28;20503;-74
2022/05/18 02:11:00;;;;;;;5.28;3.15;;;18.20;56.80;;;;;;5056134;28;20025;-74
2022/05/18 02:13:26;;;;;;;5.28;3.28;;;18.20;56.90;;;;;;5056056;28;20115;-74
2022/05/18 02:15:52;;;;;;;3.38;2.63;;;18.20;57.00;;;;;;5054790;28;20071;-74
2022/05/18 02:18:18;;;;;;;4.45;2.58;;;18.20;57.00;;;;;;5055900;28;20025;-74
2022/05/18 02:20:44;;;;;;;5.82;3.22;;;18.10;57.00;;;;;;5053806;28;20549;-74
2022/05/18 02:23:10;;;;;;;5.28;3.13;;;18.10;57.30;;;;;;5075764;28;20035;-74
2022/05/18 02:25:37;;;;;;;4.75;3.20;;;18.10;57.70;;;;;;5057838;28;20027;-73
2022/05/18 02:28:04;;;;;;;4.15;2.72;;;18.10;57.80;;;;;;5057671;28;20025;-73
2022/05/18 02:30:31;;;;;;;3.10;2.78;;;18.00;57.80;;;;;;5057696;28;20524;-74
2022/05/18 02:32:56;;;;;;;6.70;2.65;;;18.00;57.80;;;;;;5075618;28;20024;-74
2022/05/18 02:35:22;;;;;;;3.53;2.70;;;18.00;57.60;;;;;;5056120;28;20798;-74
2022/05/18 02:37:48;;;;;;;3.40;2.47;;;18.00;57.50;;;;;;5058743;28;20029;-74
2022/05/18 02:40:14;;;;;;;5.20;2.83;;;18.00;57.30;;;;;;5065157;28;20032;-74
2022/05/18 02:42:39;;;;;;;5.78;3.17;;;17.90;57.40;;;;;;5063704;28;20104;-74
2022/05/18 02:45:06;;;;;;;5.10;2.97;;;17.90;57.30;;;;;;5063513;28;20025;-74
2022/05/18 02:47:32;;;;;;;5.75;3.05;;;17.90;57.30;;;;;;5061465;28;20070;-74
2022/05/18 02:49:58;;;;;;;5.90;3.42;;;17.90;57.30;;;;;;5053007;28;20021;-74
2022/05/18 02:52:24;;;;;;;5.15;3.15;;;17.80;57.50;;;;;;5057632;28;20104;-74
2022/05/18 02:57:33;;;;;;;2.95;2.60;;;17.70;57.70;;;;;;5055490;28;20121;-74
2022/05/18 02:59:59;;;;;;;6.28;2.80;;;17.70;57.50;;;;;;5055200;28;20124;-74
2022/05/18 03:02:25;;;;;;;4.47;2.53;;;17.70;57.60;;;;;;5037498;28;20055;-74
2022/05/18 03:04:51;;;;;;;3.75;2.90;;;17.60;57.70;;;;;;5055171;28;20080;-74
2022/05/18 03:07:17;;;;;;;6.47;2.70;;;17.60;57.60;;;;;;5055223;28;20490;-74
2022/05/18 03:09:43;;;;;;;6.60;3.22;;;17.60;58.00;;;;;;5055027;28;20533;-74
2022/05/18 03:12:09;;;;;;;4.25;2.80;;;17.60;58.10;;;;;;5055183;28;20100;-74
2022/05/18 03:14:35;;;;;;;3.35;3.00;;;17.50;58.20;;;;;;5054676;28;20035;-74
2022/05/18 03:17:01;;;;;;;4.93;3.38;;;17.50;58.20;;;;;;5054900;28;20390;-74
2022/05/18 03:19:27;;;;;;;4.22;3.50;;;17.50;58.30;;;;;;5053920;28;20520;-74
2022/05/18 03:24:37;;;;;;;4.22;2.90;;;17.40;58.50;;;;;;5068206;28;20032;-74
2022/05/18 03:27:04;;;;;;;3.38;2.75;;;17.40;58.40;;;;;;5054799;28;20104;-74
2022/05/18 03:29:29;;;;;;;3.92;3.00;;;17.40;58.50;;;;;;5036889;28;20466;-74
2022/05/18 03:31:55;;;;;;;3.42;2.65;;;17.40;58.60;;;;;;5054772;28;20109;-74
2022/05/18 03:34:21;;;;;;;4.18;2.83;;;17.30;58.60;;;;;;5065571;28;20099;-74
2022/05/18 03:36:47;;;;;;;6.68;4.30;;;17.30;58.60;;;;;;5074743;28;20158;-74
2022/05/18 03:39:13;;;;;;;7.72;3.45;;;17.30;58.90;;;;;;5074595;28;20123;-75
2022/05/18 03:41:40;;;;;;;7.80;3.53;;;17.30;58.90;;;;;;5074401;28;20107;-75
2022/05/18 03:44:07;;;;;;;3.83;2.95;;;17.30;59.10;;;;;;5056496;28;20021;-75
2022/05/18 03:46:34;;;;;;;6.85;2.83;;;17.30;58.90;;;;;;5074415;28;20021;-76
2022/05/18 03:48:59;;;;;;;3.92;2.75;;;17.30;59.00;;;;;;5074369;28;20428;-76
2022/05/18 03:51:25;;;;;;;6.32;3.30;;;17.30;58.80;;;;;;5074345;28;20024;-75
2022/05/18 03:53:52;;;;;;;2.95;2.58;;;17.30;58.90;;;;;;5073513;28;20028;-75
2022/05/18 03:56:18;;;;;;;3.20;2.67;;;17.30;58.80;;;;;;5062655;28;20025;-75
2022/05/18 03:58:44;;;;;;;4.15;2.78;;;17.30;58.80;;;;;;5074014;28;20132;-75
2022/05/18 04:01:10;;;;;;;6.28;2.88;;;17.30;58.90;;;;;;5074099;28;20047;-75
2022/05/18 04:03:39;;;;;;;4.28;2.67;;;17.30;58.90;;;;;;5074170;28;20034;-75
2022/05/18 04:06:06;;;;;;;8.90;2.92;;;17.30;59.00;;;;;;5073943;28;20146;-75
2022/05/18 04:08:32;;;;;;;9.07;2.72;;;17.30;58.90;;;;;;5074066;28;20048;-75
2022/05/18 04:10:58;;;;;;;5.32;3.05;;;17.30;59.00;;;;;;5073915;28;20039;-75
2022/05/18 04:13:25;;;;;;;7.43;3.08;;;17.40;59.60;;;;;;5046508;28;20029;-75
2022/05/18 04:15:53;;;;;;;5.70;2.75;;;17.40;59.00;;;;;;5051693;28;20055;-75
2022/05/18 04:18:18;;;;;;;8.38;2.65;;;17.40;58.80;;;;;;5055426;28;20031;-75
2022/05/18 04:20:45;;;;;;;3.47;2.63;;;17.40;58.70;;;;;;5073645;28;20032;-75
2022/05/18 04:23:11;;;;;;;5.40;3.00;;;17.40;58.60;;;;;;5055732;28;20025;-75
2022/05/18 04:25:39;;;;;;;5.47;2.88;;;17.50;58.60;;;;;;5073531;28;20025;-75
2022/05/18 04:28:05;;;;;;;4.22;2.33;;;17.50;58.60;;;;;;5072904;28;20425;-75
2022/05/18 04:30:31;;;;;;;12.43;3.42;;;17.50;58.50;;;;;;5053820;28;20517;-75
2022/05/18 04:32:58;;;;;;;6.43;3.00;;;17.60;58.40;;;;;;5073503;28;20100;-75
2022/05/18 04:35:26;;;;;;;6.32;3.03;;;17.70;58.20;;;;;;5073291;28;20127;-75
2022/05/18 04:37:52;;;;;;;4.88;2.95;;;17.70;57.70;;;;;;5073368;28;20020;-75
2022/05/18 04:40:18;;;;;;;4.90;3.00;;;17.80;57.60;;;;;;5055416;28;20439;-74
2022/05/18 04:42:44;;;;;;;6.13;3.22;;;17.90;57.50;;;;;;5073217;28;20016;-75
2022/05/18 04:45:12;;;;;;;8.15;2.55;;;18.00;57.30;;;;;;5063051;28;20036;-75
2022/05/18 04:47:38;;;;;;;4.88;2.70;;;18.10;57.10;;;;;;5053123;28;20398;-75
2022/05/18 04:50:06;;;;;;;3.58;2.75;;;18.20;56.70;;;;;;5059704;28;20059;-75
2022/05/18 04:52:31;;;;;;;5.07;2.70;;;18.30;56.70;;;;;;5073033;28;20608;-75
2022/05/18 04:54:57;;;;;;;4.50;2.95;;;18.40;56.00;;;;;;5072951;28;20070;-74
2022/05/18 04:57:23;;;;;;;5.38;3.00;;;18.40;55.70;;;;;;5072989;28;20063;-75
2022/05/18 04:59:49;;;;;;;4.65;2.55;;;18.50;55.40;;;;;;5054870;28;20059;-75
2022/05/18 05:02:16;;;;;;;7.82;2.60;;;18.50;55.20;;;;;;5071435;28;20025;-75
2022/05/18 05:04:42;;;;;;;6.95;2.70;;;18.60;55.20;;;;;;5054745;28;20465;-75
2022/05/18 05:07:08;;;;;;;4.05;2.72;;;18.60;55.00;;;;;;5060399;28;20052;-75
2022/05/18 05:09:34;;;;;;;3.72;2.25;;;18.70;55.00;;;;;;5072467;28;20044;-75
2022/05/18 05:12:01;;;;;;;5.68;2.60;;;18.70;55.00;;;;;;5072813;28;20059;-75
2022/05/18 05:14:27;;;;;;;3.40;2.50;;;18.80;55.00;;;;;;5054882;28;20024;-75
2022/05/18 05:16:52;;;;;;;3.90;2.30;;;18.80;54.70;;;;;;5072488;28;20094;-75
2022/05/18 05:19:18;;;;;;;4.95;2.92;;;18.90;54.40;;;;;;5072649;28;20029;-75
2022/05/18 05:21:44;;;;;;;10.88;2.75;;;19.00;53.30;;;;;;5072585;28;20380;-75
2022/05/18 05:24:12;;;;;;;3.70;2.45;;;19.00;53.00;;;;;;5071619;28;20020;-75
2022/05/18 05:26:39;;;;;;;6.55;2.40;;;19.10;52.80;;;;;;5072708;28;20490;-75
2022/05/18 05:29:05;;;;;;;4.15;3.10;;;19.10;52.70;;;;;;5071130;28;20070;-75
2022/05/18 05:31:31;;;;;;;4.82;2.53;;;19.30;52.20;;;;;;5072504;28;20021;-75
2022/05/18 05:33:58;;;;;;;10.75;3.13;;;19.30;51.80;;;;;;5072449;28;20024;-75
2022/05/18 05:36:24;;;;;;;3.70;2.60;;;19.40;51.40;;;;;;5072538;28;20089;-75
2022/05/18 05:38:50;;;;;;;8.98;2.80;;;19.40;51.20;;;;;;5072322;28;20028;-74
2022/05/18 05:41:16;;;;;;;3.53;2.38;;;19.40;51.10;;;;;;5072394;28;20017;-75
2022/05/18 05:43:42;;;;;;;8.20;2.67;;;19.50;51.40;;;;;;5072015;28;20021;-75
2022/05/18 05:46:13;;;;;;;3.85;2.78;;;19.60;50.90;;;;;;5072167;28;20024;-75
2022/05/18 05:48:40;;;;;;;9.18;2.92;;;19.70;50.60;;;;;;5072314;28;20120;-75
2022/05/18 05:51:08;;;;;;;5.90;2.63;;;19.70;50.20;;;;;;5070333;28;20033;-75
2022/05/18 05:53:34;;;;;;;3.78;2.30;;;19.80;50.50;;;;;;5053999;28;20485;-76
2022/05/18 05:56:00;;;;;;;5.53;2.92;;;19.90;50.70;;;;;;5072226;28;20024;-75
2022/05/18 05:58:26;;;;;;;5.95;2.65;;;19.90;50.00;;;;;;5069004;28;20401;-75
2022/05/18 06:00:52;;;;;;;4.70;2.63;;;19.90;49.80;;;;;;5052272;28;20437;-75
2022/05/18 06:03:20;;;;;;;4.47;2.40;;;20.00;50.00;;;;;;5052173;28;20466;-75
2022/05/18 06:05:46;;;;;;;5.53;2.88;;;20.00;50.10;;;;;;5052224;28;20025;-75
2022/05/18 06:08:11;;;;;;;4.82;2.63;;;20.20;50.10;;;;;;5051990;28;20381;-75
2022/05/18 06:10:39;;;;;;;7.38;3.00;;;20.20;49.80;;;;;;5052042;28;20025;-75
2022/05/18 06:13:06;;;;;;;4.18;2.78;;;20.30;49.60;;;;;;5052093;28;20025;-75
2022/05/18 06:15:32;;;;;;;5.78;1.90;;;20.30;49.40;;;;;;5052031;28;20025;-75
2022/05/18 06:17:57;;;;;;;8.95;2.92;;;20.40;49.20;;;;;;5055877;28;20028;-75
2022/05/18 06:20:23;;;;;;;7.75;2.92;;;20.40;48.90;;;;;;5080166;28;20448;-75
2022/05/18 06:22:49;;;;;;;4.80;2.40;;;20.50;48.70;;;;;;5074128;28;20112;-75
2022/05/18 06:25:15;;;;;;;3.95;2.20;;;20.50;48.20;;;;;;5092541;28;20111;-75
2022/05/18 06:27:42;;;;;;;5.30;3.03;;;20.50;48.50;;;;;;5074350;28;20024;-74
2022/05/18 06:30:13;;;;;;;3.45;2.25;;;20.60;48.10;;;;;;5080949;28;20083;-74
2022/05/18 06:32:38;;;;;;;8.93;2.30;;;20.60;48.10;;;;;;5051864;28;20383;-75
2022/05/18 06:35:05;;;;;;;7.72;2.40;;;20.70;47.80;;;;;;5051870;28;20033;-75
2022/05/18 06:37:32;;;;;;;5.18;2.38;;;20.70;47.00;;;;;;5034282;28;20386;-75
2022/05/18 06:39:58;;;;;;;4.20;2.17;;;20.80;47.00;;;;;;5033999;28;20463;-75
2022/05/18 06:42:23;;;;;;;4.32;2.08;;;20.80;46.90;;;;;;5051921;28;20086;-74
2022/05/18 06:44:49;;;;;;;3.88;2.13;;;20.90;46.00;;;;;;5051890;28;20048;-75
2022/05/18 06:47:15;;;;;;;9.02;2.50;;;20.90;45.90;;;;;;5053312;28;20108;-75
2022/05/18 06:49:41;;;;;;;4.07;2.13;;;21.00;45.60;;;;;;5034204;28;20021;-75
2022/05/18 06:52:09;;;;;;;7.10;2.70;;;21.00;45.80;;;;;;5069160;28;20086;-75
2022/05/18 06:54:36;;;;;;;6.20;2.65;;;21.10;45.50;;;;;;5056352;28;20029;-75
2022/05/18 06:57:03;;;;;;;4.35;2.67;;;21.10;44.90;;;;;;5075333;28;20044;-75
2022/05/18 06:59:29;;;;;;;4.47;2.35;;;21.20;44.90;;;;;;5075230;28;20553;-75
2022/05/18 07:01:55;;;;;;;4.03;2.13;;;21.20;45.40;;;;;;5075379;28;20106;-74
2022/05/18 07:04:21;;;;;;;4.93;2.38;;;21.30;45.30;;;;;;5074985;28;20032;-75
2022/05/18 07:06:47;;;;;;;7.65;2.45;;;21.30;45.00;;;;;;5051743;28;20025;-75
2022/05/18 07:09:17;;;;;;;4.35;2.05;;;21.40;45.10;;;;;;5055017;28;20013;-75
2022/05/18 07:11:43;;;;;;;5.60;2.38;;;21.40;44.50;;;;;;5055240;28;20025;-75
2022/05/18 07:14:09;;;;;;;4.15;2.28;;;21.50;44.30;;;;;;5074695;28;20017;-75
2022/05/18 07:16:35;;;;;;;5.15;2.50;;;21.50;43.90;;;;;;5075156;28;20020;-75
2022/05/18 07:19:01;;;;;;;5.05;2.40;;;21.60;44.00;;;;;;5075002;28;20040;-75
2022/05/18 07:21:29;;;;;;;3.80;2.20;;;21.60;44.00;;;;;;5074986;28;20035;-75
2022/05/18 07:23:55;;;;;;;4.43;2.50;;;21.70;44.00;;;;;;5074998;28;20052;-75
2022/05/18 07:26:22;;;;;;;7.20;3.08;;;21.70;43.70;;;;;;5072838;28;20028;-75
2022/05/18 07:28:49;;;;;;;5.55;2.58;;;21.80;43.50;;;;;;5061358;28;20021;-75
2022/05/18 07:31:14;;;;;;;8.65;2.28;;;21.80;42.60;;;;;;5080741;28;20027;-75
2022/05/18 07:33:41;;;;;;;6.05;2.35;;;21.80;43.10;;;;;;5055560;28;20040;-75
2022/05/18 07:36:07;;;;;;;6.32;2.70;;;21.80;42.80;;;;;;5072718;28;20036;-75
2022/05/18 07:38:34;;;;;;;7.72;2.47;;;21.90;43.10;;;;;;5074681;28;20052;-75
2022/05/18 07:41:01;;;;;;;11.68;2.60;;;21.90;43.00;;;;;;5056512;28;20020;-75
2022/05/18 07:43:27;;;;;;;8.52;2.55;;;22.00;42.50;;;;;;5080171;28;20381;-78
2022/05/18 07:45:55;;;;;;;4.63;2.17;;;22.00;42.50;;;;;;5056432;28;20039;-75
2022/05/18 07:48:22;;;;;;;5.05;2.40;;;22.10;42.30;;;;;;5074501;28;20070;-75
2022/05/18 07:50:49;;;;;;;3.22;2.13;;;22.20;42.10;;;;;;5054551;28;20021;-75
2022/05/18 07:53:15;;;;;;;5.43;2.15;;;22.20;42.10;;;;;;5074429;28;20005;-74
2022/05/18 07:55:41;;;;;;;6.45;2.40;;;22.20;41.20;;;;;;5071472;28;20013;-75
2022/05/18 07:58:10;;;;;;;6.30;2.22;;;22.30;40.10;;;;;;5062348;28;20098;-75
2022/05/18 08:00:36;;;;;;;13.05;2.50;;;22.30;40.90;;;;;;5054324;28;20413;-75
2022/05/18 08:03:02;;;;;;;6.82;2.47;;;22.40;41.10;;;;;;5052880;28;20028;-75
2022/05/18 08:05:30;;;;;;;4.70;2.92;;;22.40;41.50;;;;;;5054185;28;20021;-74
2022/05/18 08:07:56;;;;;;;4.65;2.50;;;22.50;41.70;;;;;;5054086;28;20053;-74
2022/05/18 08:15:53;;;;;;;5.60;2.67;;;22.60;40.20;;;;;;5054525;28;20036;-75
2022/05/18 08:18:20;;;;;;;4.68;2.05;;;22.60;40.20;;;;;;5036091;28;20029;-74
2022/05/18 08:20:46;;;;;;;7.00;2.67;;;22.70;40.80;;;;;;5051441;28;20481;-75
2022/05/18 08:23:12;;;;;;;6.50;2.95;;;22.70;40.10;;;;;;5073112;28;20024;-74
2022/05/18 08:25:39;;;;;;;7.78;3.00;;;22.80;40.40;;;;;;5055379;28;20389;-74
2022/05/18 08:28:08;;;;;;;6.00;3.35;;;22.80;40.00;;;;;;5070830;28;20086;-75
2022/05/18 08:30:34;;;;;;;4.38;2.85;;;22.80;39.50;;;;;;5044941;28;20470;-74
2022/05/18 08:33:01;;;;;;;9.52;3.13;;;22.80;39.30;;;;;;5073495;28;20032;-75
2022/05/18 08:35:28;;;;;;;3.72;2.38;;;22.80;39.50;;;;;;5059742;28;20021;-75
2022/05/18 08:37:56;;;;;;;8.50;3.15;;;22.90;39.20;;;;;;5065912;28;20020;-75
2022/05/18 08:40:38;;;;;;;7.75;2.83;;;22.90;38.80;;;;;;5068956;28;20100;-75
2022/05/18 08:43:10;;;;;;;8.18;3.20;;;23.00;39.10;;;;;;5073600;28;20024;-75
2022/05/18 08:45:43;;;;;;;5.55;2.97;;;23.00;38.90;;;;;;5077516;28;20024;-75
2022/05/18 08:48:24;;;;;;;10.07;3.53;;;23.00;38.20;;;;;;5073473;28;20466;-76
2022/05/18 08:50:52;;;;;;;7.13;2.85;;;23.10;38.40;;;;;;5073404;28;20419;-75
2022/05/18 08:53:21;;;;;;;6.10;2.60;;;23.10;38.40;;;;;;5073435;28;20470;-75
2022/05/18 08:56:08;;;;;;;4.25;2.70;;;23.20;38.20;;;;;;5073328;28;20466;-76
2022/05/18 08:58:41;;;;;;;4.80;2.45;;;23.20;38.00;;;;;;5086119;28;20051;-75
2022/05/18 09:01:22;;;;;;;9.02;3.13;;;23.30;37.80;;;;;;5064477;28;20021;-75
2022/05/18 09:03:54;;;;;;;6.85;2.58;;;23.30;37.10;;;;;;5063685;28;20028;-75
2022/05/18 09:06:42;;;;;;;3.28;2.30;;;23.30;37.10;;;;;;5081297;28;20012;-75
2022/05/18 09:12:03;;;;;;;5.88;2.50;;;23.40;37.40;;;;;;5065114;28;20520;-76
2022/05/18 09:14:37;;;;;;;8.57;2.88;;;23.50;37.30;;;;;;5072649;28;20029;-75
2022/05/18 09:17:34;;;;;;;9.25;2.72;;;23.50;36.80;;;;;;5072946;28;20020;-75
2022/05/18 09:20:15;;;;;;;3.85;2.08;;;23.60;37.70;;;;;;5067532;28;20382;-75
2022/05/18 09:22:43;;;;;;;6.57;2.08;;;23.60;36.70;;;;;;5065742;28;20020;-75
2022/05/18 09:25:38;;;;;;;5.25;2.60;;;23.60;36.70;;;;;;5069409;28;20379;-75
2022/05/18 09:28:13;;;;;;;12.07;2.65;;;23.60;36.40;;;;;;5055077;28;20382;-75
2022/05/18 09:30:57;;;;;;;4.70;2.55;;;23.70;35.70;;;;;;5072795;28;20070;-75
2022/05/18 09:33:43;;;;;;;;;;;23.70;35.60;;;;;;5054164;28;20021;-75
2022/05/18 09:36:46;;;;;;;5.55;2.45;;;23.70;37.50;;;;;;5057219;28;20439;-76
2022/05/18 09:39:17;;;;;;;5.03;2.70;;;23.80;36.80;;;;;;5077264;28;20103;-76
2022/05/18 09:42:00;;;;;;;6.00;2.47;;;23.80;36.20;;;;;;5072254;28;20383;-75
2022/05/18 09:44:36;;;;;;;5.78;3.05;;;23.80;36.30;;;;;;5074443;28;20028;-74
2022/05/18 09:47:03;;;;;;;7.68;3.13;;;23.90;35.90;;;;;;5070245;28;20430;-74
2022/05/18 09:49:50;;;;;;;4.40;2.40;;;23.90;35.30;;;;;;5063711;28;20073;-74
2022/05/18 09:52:22;;;;;;;6.00;2.60;;;23.90;35.90;;;;;;5066993;28;20021;-75
2022/05/18 09:54:57;;;;;;;6.07;2.88;;;23.90;35.50;;;;;;5051562;28;20017;-74
2022/05/18 09:57:40;;;;;;;5.57;2.90;;;24.00;35.70;;;;;;5074336;28;20500;-75
2022/05/18 10:00:11;;;;;;;8.60;3.67;;;24.10;35.90;;;;;;5048864;28;20458;-75
2022/05/18 10:08:33;;;;;;;9.00;4.63;;;24.20;35.00;;;;;;5052089;28;20410;-75
2022/05/18 10:11:06;;;;;;;8.95;3.92;;;24.20;35.20;;;;;;5053345;28;20470;-75
2022/05/18 10:13:35;;;;;;;8.23;4.15;;;24.20;34.90;;;;;;5051995;28;20017;-75
2022/05/18 10:16:47;;;;;;;9.13;4.18;;;24.20;34.80;;;;;;5050652;28;20028;-75
2022/05/18 10:19:33;;;;;;;10.38;3.95;;;24.30;35.40;;;;;;5031375;28;20125;-75
2022/05/18 10:22:03;;;;;;;6.65;3.45;;;24.40;34.10;;;;;;5043382;28;20498;-75
2022/05/18 10:24:54;;;;;;;6.97;4.40;;;24.40;34.20;;;;;;5051379;28;20029;-75
2022/05/18 10:27:34;;;;;;;6.93;3.92;;;24.40;34.40;;;;;;5054522;28;20102;-75
2022/05/18 10:30:16;;;;;;;8.20;2.78;;;24.50;34.30;;;;;;5055746;28;20086;-76
2022/05/18 10:32:59;;;;;;;7.20;3.70;;;24.50;34.40;;;;;;5054418;28;20126;-75
2022/05/18 10:35:52;;;;;;;6.22;4.07;;;24.60;34.80;;;;;;5064465;28;20021;-74
2022/05/18 10:38:23;;;;;;;3.95;2.28;;;24.70;35.00;;;;;;5051300;28;20036;-74
2022/05/18 10:40:51;;;;;;;6.15;2.72;;;24.70;33.80;;;;;;5035551;28;20497;-74
2022/05/18 10:43:31;;;;;;;6.45;2.30;;;24.80;33.70;;;;;;5052357;28;20017;-74
2022/05/18 10:46:09;;;;;;;9.35;5.25;;;24.80;33.70;;;;;;5055572;28;20025;-74
2022/05/18 10:48:35;;;;;;;12.68;4.72;;;24.80;33.80;;;;;;5071064;28;20379;-73
2022/05/18 10:51:06;;;;;;;5.25;3.72;;;24.80;33.00;;;;;;5075447;28;20017;-74
2022/05/18 10:53:40;;;;;;;5.28;3.05;;;24.90;34.10;;;;;;5063895;28;20294;-74
2022/05/18 10:56:26;;;;;;;6.60;3.65;;;24.90;33.50;;;;;;5054882;28;20025;-74
2022/05/18 10:59:18;;;;;;;5.45;2.30;;;24.90;32.70;;;;;;5063899;28;20051;-74
2022/05/18 11:02:27;;;;;;;10.98;2.70;;;25.00;33.20;;;;;;5070489;28;20225;-76
2022/05/18 11:05:15;;;;;;;5.90;2.95;;;25.00;33.60;;;;;;5055020;28;20112;-75
2022/05/18 11:07:43;;;;;;;12.85;3.42;;;25.10;32.50;;;;;;5056787;28;20431;-74
2022/05/18 11:10:09;;;;;;;7.97;3.15;;;25.10;32.70;;;;;;5037189;28;20382;-75
2022/05/18 11:12:41;;;;;;;9.10;2.85;;;25.10;32.80;;;;;;5066208;28;20099;-74
2022/05/18 11:16:05;;;;;;;7.45;4.90;;;25.20;32.60;;;;;;5074944;28;20080;-74
2022/05/18 11:18:52;;;;;;;5.50;3.22;;;25.20;33.30;;;;;;4963081;28;20560;-75
2022/05/18 11:21:27;;;;;;;6.78;3.75;;;25.20;32.80;;;;;;4957629;28;20033;-75
2022/05/18 11:24:17;;;;;;;7.38;3.85;;;25.30;32.60;;;;;;4973835;28;20117;-75
2022/05/18 11:26:48;;;;;;;6.80;3.00;;;25.40;32.30;;;;;;4956012;28;20047;-74
2022/05/18 11:29:44;;;;;;;8.13;3.70;;;25.40;31.90;;;;;;4969496;28;20125;-75
2022/05/18 11:32:26;;;;;;;6.40;2.88;;;25.50;31.90;;;;;;4963585;28;20022;-74
2022/05/18 11:35:16;;;;;;;5.15;2.45;;;25.50;31.60;;;;;;4972754;28;20053;-74
2022/05/18 11:38:15;;;;;;;7.05;2.78;;;25.50;31.80;;;;;;4973576;28;20118;-75
2022/05/18 11:40:55;;;;;;;5.80;3.13;;;25.50;32.30;;;;;;4957735;28;20027;-74
2022/05/18 11:43:46;;;;;;;8.32;2.80;;;25.60;31.50;;;;;;4973226;28;20031;-76
2022/05/18 11:46:18;;;;;;;10.00;2.45;;;25.60;31.50;;;;;;4952431;28;20042;-75
2022/05/18 11:49:15;;;;;;;3.55;2.50;;;25.60;30.80;;;;;;4973557;28;20038;-75
2022/05/18 11:51:52;;;;;;;6.18;2.88;;;25.60;31.70;;;;;;4973600;28;20061;-74
2022/05/18 11:54:28;;;;;;;11.05;2.53;;;25.60;31.00;;;;;;4996721;28;20033;-75
2022/05/18 11:57:07;;;;;;;6.75;2.60;;;25.70;31.00;;;;;;5054390;28;20025;-74
2022/05/18 11:59:56;;;;;;;6.03;3.13;;;25.70;31.10;;;;;;5054068;28;20056;-74
2022/05/18 12:02:24;;;;;;;5.22;2.70;;;25.70;30.70;;;;;;5036223;28;20479;-75
2022/05/18 12:05:17;;;;;;;4.13;2.25;;;25.70;31.00;;;;;;5054691;28;20029;-75
2022/05/18 12:07:52;;;;;;;4.03;2.17;;;25.80;30.70;;;;;;5074016;28;20025;-74
2022/05/18 12:10:49;;;;;;;5.57;2.20;;;25.80;30.90;;;;;;5056290;28;20027;-76
2022/05/18 12:13:56;;;;;;;4.72;1.88;;;25.80;31.00;;;;;;5072377;28;20031;-75
2022/05/18 12:16:39;;;;;;;4.93;2.40;;;25.80;30.80;;;;;;5026718;28;20099;-74
2022/05/18 12:19:13;;;;;;;4.78;2.45;;;25.90;30.80;;;;;;5054092;28;20474;-75
2022/05/18 12:21:48;;;;;;;9.32;2.50;;;25.90;30.80;;;;;;5053976;28;20079;-75
2022/05/18 12:24:14;;;;;;;7.57;2.97;;;25.90;30.70;;;;;;5053987;28;20021;-75
2022/05/18 12:26:43;;;;;;;3.78;1.80;;;26.00;30.20;;;;;;5044165;28;20016;-75
2022/05/18 12:29:11;;;;;;;2.78;1.85;;;26.00;30.50;;;;;;5073584;28;20109;-74
2022/05/18 12:31:38;;;;;;;3.30;2.00;;;26.00;30.40;;;;;;5073644;28;20021;-74
2022/05/18 12:34:12;;;;;;;6.65;2.40;;;26.10;30.30;;;;;;5073507;28;20027;-75
2022/05/18 12:36:56;;;;;;;4.60;2.90;;;26.00;30.00;;;;;;5073627;28;20103;-75
2022/05/18 12:39:25;;;;;;;10.32;2.92;;;26.10;30.10;;;;;;5071622;28;20414;-76
2022/05/18 12:41:56;;;;;;;5.20;2.35;;;26.10;30.10;;;;;;5073724;28;20082;-75
2022/05/18 12:44:25;;;;;;;5.90;2.50;;;26.10;29.80;;;;;;5072614;28;20021;-75
2022/05/18 12:47:09;;;;;;;6.40;2.72;;;26.10;29.90;;;;;;5054875;28;20028;-74
2022/05/18 12:49:42;;;;;;;;;;;26.20;29.80;;;;;;5073539;28;20009;-75
2022/05/18 12:52:35;;;;;;;5.90;2.45;;;26.20;30.70;;;;;;5073640;28;19928;-75
2022/05/18 12:55:20;;;;;;;14.00;2.40;;;26.20;29.60;;;;;;5068313;28;20024;-74
2022/05/18 12:58:24;;;;;;;5.32;2.60;;;26.20;29.90;;;;;;5055243;28;20032;-74
2022/05/18 13:01:04;;;;;;;7.32;2.28;;;26.20;30.10;;;;;;5020970;28;20508;-74
2022/05/18 13:03:42;;;;;;;6.70;2.50;;;26.20;30.00;;;;;;5033305;28;20116;-74
2022/05/18 13:06:14;;;;;;;3.25;2.17;;;26.30;30.00;;;;;;5033275;28;20013;-76
2022/05/18 13:08:39;;;;;;;4.10;1.92;;;26.30;30.00;;;;;;5032042;28;20017;-74
2022/05/18 13:11:08;;;;;;;6.45;1.73;;;26.30;29.70;;;;;;5033232;28;20017;-74
2022/05/18 13:13:55;;;;;;;5.75;2.70;;;26.40;29.70;;;;;;5033216;28;20013;-74
2022/05/18 13:16:39;;;;;;;4.00;2.38;;;26.40;29.90;;;;;;5031694;28;20506;-74
2022/05/18 13:19:14;;;;;;;;;;;26.40;29.90;;;;;;5032107;28;20076;-75
2022/05/18 13:22:20;;;;;;;3.35;2.00;;;26.50;30.40;;;;;;5031806;28;20341;-75
2022/05/18 13:24:55;;;;;;;5.35;2.65;;;26.50;30.00;;;;;;5032174;28;20403;-75
2022/05/18 13:27:41;;;;;;;4.07;1.92;;;26.70;30.30;;;;;;5031770;28;20025;-74
2022/05/18 13:30:13;;;;;;;3.90;2.38;;;26.90;29.50;;;;;;5030685;28;20094;-74